sensor_id;sensor_type;location;lat;lon;timestamp;P1;durP1;ratioP1;P2;durP2;ratioP2
3663;SDS011;1848;51.042;7.066;2022-09-09T00:01:57;6.37;;;2.70;;
3663;SDS011;1848;51.042;7.066;2022-09-09T00:04:49;4.20;;;2.50;;
3663;SDS011;1848;51.042;7.066;2022-09-09T00:07:46;3.03;;;2.50;;
3663;SDS011;1848;51.042;7.066;2022-09-09T00:16:15;6.80;;;2.60;;
3663;SDS011;1848;51.042;7.066;2022-09-09T00:18:57;4.70;;;2.73;;
3663;SDS011;1848;51.042;7.066;2022-09-09T00:21:35;6.67;;;2.70;;
3663;SDS011;1848;51.042;7.066;2022-09-09T00:24:08;6.10;;;2.57;;
3663;SDS011;1848;51.042;7.066;2022-09-09T00:26:44;3.40;;;2.57;;
3663;SDS011;1848;51.042;7.066;2022-09-09T00:29:19;10.00;;;2.73;;
3663;SDS011;1848;51.042;7.066;2022-09-09T00:32:08;4.07;;;2.43;;
3663;SDS011;1848;51.042;7.066;2022-09-09T00:35:14;6.50;;;2.77;;
3663;SDS011;1848;51.042;7.066;2022-09-09T00:37:48;4.33;;;2.77;;
3663;SDS011;1848;51.042;7.066;2022-09-09T00:40:37;2.73;;;2.37;;
3663;SDS011;1848;51.042;7.066;2022-09-09T00:54:12;3.57;;;2.33;;
3663;SDS011;1848;51.042;7.066;2022-09-09T00:56:53;6.87;;;2.40;;
3663;SDS011;1848;51.042;7.066;2022-09-09T00:59:45;3.30;;;2.37;;
3663;SDS011;1848;51.042;7.066;2022-09-09T01:02:36;2.97;;;2.63;;
3663;SDS011;1848;51.042;7.066;2022-09-09T01:07:49;7.43;;;2.50;;
3663;SDS011;1848;51.042;7.066;2022-09-09T01:10:29;7.27;;;2.63;;
3663;SDS011;1848;51.042;7.066;2022-09-09T01:13:00;4.10;;;2.50;;
3663;SDS011;1848;51.042;7.066;2022-09-09T01:15:31;6.90;;;2.40;;
3663;SDS011;1848;51.042;7.066;2022-09-09T01:18:02;6.27;;;2.83;;
3663;SDS011;1848;51.042;7.066;2022-09-09T01:20:47;2.70;;;2.30;;
3663;SDS011;1848;51.042;7.066;2022-09-09T01:23:38;5.83;;;2.43;;
3663;SDS011;1848;51.042;7.066;2022-09-09T01:26:37;4.00;;;2.40;;
3663;SDS011;1848;51.042;7.066;2022-09-09T01:29:08;5.00;;;2.17;;
3663;SDS011;1848;51.042;7.066;2022-09-09T01:31:37;6.83;;;2.30;;
3663;SDS011;1848;51.042;7.066;2022-09-09T01:34:13;7.47;;;2.57;;
3663;SDS011;1848;51.042;7.066;2022-09-09T01:36:42;5.20;;;2.37;;
3663;SDS011;1848;51.042;7.066;2022-09-09T01:39:19;2.77;;;2.00;;
3663;SDS011;1848;51.042;7.066;2022-09-09T01:41:46;4.57;;;2.50;;
3663;SDS011;1848;51.042;7.066;2022-09-09T01:44:14;5.77;;;2.43;;
3663;SDS011;1848;51.042;7.066;2022-09-09T01:46:40;3.90;;;2.13;;
3663;SDS011;1848;51.042;7.066;2022-09-09T01:49:07;3.73;;;2.37;;
3663;SDS011;1848;51.042;7.066;2022-09-09T01:51:35;3.03;;;1.97;;
3663;SDS011;1848;51.042;7.066;2022-09-09T01:54:04;4.87;;;2.27;;
3663;SDS011;1848;51.042;7.066;2022-09-09T01:56:54;3.13;;;2.30;;
3663;SDS011;1848;51.042;7.066;2022-09-09T01:59:29;2.90;;;1.97;;
3663;SDS011;1848;51.042;7.066;2022-09-09T02:02:13;6.03;;;2.40;;
3663;SDS011;1848;51.042;7.066;2022-09-09T02:04:48;4.97;;;2.57;;
3663;SDS011;1848;51.042;7.066;2022-09-09T02:09:57;6.07;;;2.73;;
3663;SDS011;1848;51.042;7.066;2022-09-09T02:12:32;3.17;;;2.33;;
3663;SDS011;1848;51.042;7.066;2022-09-09T02:15:07;3.93;;;2.50;;
3663;SDS011;1848;51.042;7.066;2022-09-09T02:17:46;5.20;;;2.63;;
3663;SDS011;1848;51.042;7.066;2022-09-09T02:20:18;3.10;;;2.20;;
3663;SDS011;1848;51.042;7.066;2022-09-09T02:22:46;4.40;;;2.03;;
3663;SDS011;1848;51.042;7.066;2022-09-09T02:25:16;2.63;;;2.23;;
3663;SDS011;1848;51.042;7.066;2022-09-09T02:27:45;2.53;;;2.10;;
3663;SDS011;1848;51.042;7.066;2022-09-09T02:30:16;4.47;;;2.00;;
3663;SDS011;1848;51.042;7.066;2022-09-09T02:32:44;6.90;;;2.20;;
3663;SDS011;1848;51.042;7.066;2022-09-09T02:35:14;4.73;;;2.17;;
3663;SDS011;1848;51.042;7.066;2022-09-09T02:37:44;4.20;;;2.50;;
3663;SDS011;1848;51.042;7.066;2022-09-09T02:40:14;5.47;;;2.47;;
3663;SDS011;1848;51.042;7.066;2022-09-09T02:42:42;6.80;;;2.13;;
3663;SDS011;1848;51.042;7.066;2022-09-09T02:45:12;2.73;;;2.20;;
3663;SDS011;1848;51.042;7.066;2022-09-09T02:53:16;4.30;;;2.30;;
3663;SDS011;1848;51.042;7.066;2022-09-09T02:58:30;4.60;;;1.90;;
3663;SDS011;1848;51.042;7.066;2022-09-09T03:00:56;3.03;;;2.30;;
3663;SDS011;1848;51.042;7.066;2022-09-09T03:03:24;6.37;;;1.93;;
3663;SDS011;1848;51.042;7.066;2022-09-09T03:05:50;3.90;;;2.20;;
3663;SDS011;1848;51.042;7.066;2022-09-09T03:08:16;4.83;;;2.37;;
3663;SDS011;1848;51.042;7.066;2022-09-09T03:10:43;4.60;;;2.50;;
3663;SDS011;1848;51.042;7.066;2022-09-09T03:13:09;5.43;;;2.70;;
3663;SDS011;1848;51.042;7.066;2022-09-09T03:15:38;4.70;;;2.10;;
3663;SDS011;1848;51.042;7.066;2022-09-09T03:18:05;4.70;;;2.40;;
3663;SDS011;1848;51.042;7.066;2022-09-09T03:20:31;4.57;;;2.57;;
3663;SDS011;1848;51.042;7.066;2022-09-09T03:22:59;2.67;;;2.23;;
3663;SDS011;1848;51.042;7.066;2022-09-09T03:25:25;3.20;;;2.13;;
3663;SDS011;1848;51.042;7.066;2022-09-09T03:27:52;3.77;;;2.20;;
3663;SDS011;1848;51.042;7.066;2022-09-09T03:30:21;3.20;;;2.27;;
3663;SDS011;1848;51.042;7.066;2022-09-09T03:32:48;3.43;;;2.30;;
3663;SDS011;1848;51.042;7.066;2022-09-09T03:35:14;2.67;;;2.03;;
3663;SDS011;1848;51.042;7.066;2022-09-09T03:37:41;7.03;;;2.43;;
3663;SDS011;1848;51.042;7.066;2022-09-09T03:40:08;3.87;;;2.60;;
3663;SDS011;1848;51.042;7.066;2022-09-09T03:42:36;7.40;;;2.77;;
3663;SDS011;1848;51.042;7.066;2022-09-09T03:45:04;3.77;;;2.10;;
3663;SDS011;1848;51.042;7.066;2022-09-09T03:47:33;3.27;;;1.83;;
3663;SDS011;1848;51.042;7.066;2022-09-09T03:49:59;3.93;;;2.10;;
3663;SDS011;1848;51.042;7.066;2022-09-09T03:52:26;4.87;;;2.13;;
3663;SDS011;1848;51.042;7.066;2022-09-09T03:54:53;9.87;;;2.40;;
3663;SDS011;1848;51.042;7.066;2022-09-09T03:57:20;4.60;;;2.30;;
3663;SDS011;1848;51.042;7.066;2022-09-09T03:59:46;4.33;;;2.50;;
3663;SDS011;1848;51.042;7.066;2022-09-09T04:02:12;4.70;;;2.00;;
3663;SDS011;1848;51.042;7.066;2022-09-09T04:04:39;4.17;;;2.13;;
3663;SDS011;1848;51.042;7.066;2022-09-09T04:07:05;2.93;;;2.13;;
3663;SDS011;1848;51.042;7.066;2022-09-09T04:09:33;4.20;;;2.27;;
3663;SDS011;1848;51.042;7.066;2022-09-09T04:11:59;4.10;;;2.07;;
3663;SDS011;1848;51.042;7.066;2022-09-09T04:14:26;3.90;;;2.37;;
3663;SDS011;1848;51.042;7.066;2022-09-09T04:16:55;5.13;;;1.93;;
3663;SDS011;1848;51.042;7.066;2022-09-09T04:19:23;4.80;;;2.20;;
3663;SDS011;1848;51.042;7.066;2022-09-09T04:21:49;6.63;;;2.40;;
3663;SDS011;1848;51.042;7.066;2022-09-09T04:24:17;6.90;;;2.20;;
3663;SDS011;1848;51.042;7.066;2022-09-09T04:26:44;5.27;;;1.90;;
3663;SDS011;1848;51.042;7.066;2022-09-09T04:29:11;4.40;;;2.23;;
3663;SDS011;1848;51.042;7.066;2022-09-09T04:31:37;4.77;;;1.60;;
3663;SDS011;1848;51.042;7.066;2022-09-09T04:34:10;6.80;;;2.10;;
3663;SDS011;1848;51.042;7.066;2022-09-09T04:36:37;5.07;;;1.70;;
3663;SDS011;1848;51.042;7.066;2022-09-09T04:39:05;4.27;;;1.87;;
3663;SDS011;1848;51.042;7.066;2022-09-09T04:41:31;4.23;;;2.10;;
3663;SDS011;1848;51.042;7.066;2022-09-09T04:43:58;6.70;;;2.37;;
3663;SDS011;1848;51.042;7.066;2022-09-09T04:46:26;5.93;;;2.00;;
3663;SDS011;1848;51.042;7.066;2022-09-09T04:48:53;5.93;;;2.33;;
3663;SDS011;1848;51.042;7.066;2022-09-09T04:51:19;4.30;;;2.13;;
3663;SDS011;1848;51.042;7.066;2022-09-09T04:53:46;6.60;;;2.40;;
3663;SDS011;1848;51.042;7.066;2022-09-09T04:56:15;3.53;;;1.93;;
3663;SDS011;1848;51.042;7.066;2022-09-09T04:58:42;7.10;;;2.50;;
3663;SDS011;1848;51.042;7.066;2022-09-09T05:01:19;6.07;;;2.53;;
3663;SDS011;1848;51.042;7.066;2022-09-09T05:03:48;5.03;;;1.90;;
3663;SDS011;1848;51.042;7.066;2022-09-09T05:06:15;5.53;;;2.17;;
3663;SDS011;1848;51.042;7.066;2022-09-09T05:08:43;6.73;;;3.00;;
3663;SDS011;1848;51.042;7.066;2022-09-09T05:13:51;3.73;;;1.80;;
3663;SDS011;1848;51.042;7.066;2022-09-09T05:16:18;4.80;;;2.63;;
3663;SDS011;1848;51.042;7.066;2022-09-09T05:18:45;6.10;;;2.10;;
3663;SDS011;1848;51.042;7.066;2022-09-09T05:21:16;8.50;;;2.40;;
3663;SDS011;1848;51.042;7.066;2022-09-09T05:23:44;4.10;;;2.20;;
3663;SDS011;1848;51.042;7.066;2022-09-09T05:26:12;5.10;;;2.00;;
3663;SDS011;1848;51.042;7.066;2022-09-09T05:28:43;5.43;;;2.03;;
3663;SDS011;1848;51.042;7.066;2022-09-09T05:31:10;7.17;;;2.10;;
3663;SDS011;1848;51.042;7.066;2022-09-09T05:33:42;4.57;;;2.10;;
3663;SDS011;1848;51.042;7.066;2022-09-09T05:36:12;4.30;;;2.00;;
3663;SDS011;1848;51.042;7.066;2022-09-09T05:38:43;5.77;;;2.13;;
3663;SDS011;1848;51.042;7.066;2022-09-09T05:41:11;6.63;;;2.37;;
3663;SDS011;1848;51.042;7.066;2022-09-09T05:43:39;5.07;;;2.17;;
3663;SDS011;1848;51.042;7.066;2022-09-09T05:46:06;4.27;;;2.10;;
3663;SDS011;1848;51.042;7.066;2022-09-09T05:48:34;4.93;;;1.93;;
3663;SDS011;1848;51.042;7.066;2022-09-09T05:51:04;8.10;;;2.30;;
3663;SDS011;1848;51.042;7.066;2022-09-09T05:53:33;4.70;;;2.30;;
3663;SDS011;1848;51.042;7.066;2022-09-09T05:56:02;6.00;;;2.03;;
3663;SDS011;1848;51.042;7.066;2022-09-09T05:58:31;4.20;;;2.17;;
3663;SDS011;1848;51.042;7.066;2022-09-09T06:01:08;7.93;;;2.47;;
3663;SDS011;1848;51.042;7.066;2022-09-09T06:03:37;8.73;;;2.87;;
3663;SDS011;1848;51.042;7.066;2022-09-09T06:06:06;8.20;;;2.27;;
3663;SDS011;1848;51.042;7.066;2022-09-09T06:08:35;6.47;;;2.10;;
3663;SDS011;1848;51.042;7.066;2022-09-09T06:11:09;8.10;;;2.10;;
3663;SDS011;1848;51.042;7.066;2022-09-09T06:13:38;3.27;;;1.93;;
3663;SDS011;1848;51.042;7.066;2022-09-09T06:16:06;6.37;;;2.00;;
3663;SDS011;1848;51.042;7.066;2022-09-09T06:18:38;5.10;;;2.20;;
3663;SDS011;1848;51.042;7.066;2022-09-09T06:21:06;5.43;;;2.17;;
3663;SDS011;1848;51.042;7.066;2022-09-09T06:23:35;5.07;;;2.27;;
3663;SDS011;1848;51.042;7.066;2022-09-09T06:26:05;5.93;;;2.00;;
3663;SDS011;1848;51.042;7.066;2022-09-09T06:28:34;3.37;;;1.77;;
3663;SDS011;1848;51.042;7.066;2022-09-09T06:31:02;5.70;;;1.73;;
3663;SDS011;1848;51.042;7.066;2022-09-09T06:33:34;3.90;;;2.17;;
3663;SDS011;1848;51.042;7.066;2022-09-09T06:36:02;4.27;;;2.10;;
3663;SDS011;1848;51.042;7.066;2022-09-09T06:38:32;4.07;;;2.07;;
3663;SDS011;1848;51.042;7.066;2022-09-09T06:40:59;6.97;;;2.20;;
3663;SDS011;1848;51.042;7.066;2022-09-09T06:43:26;5.40;;;2.50;;
3663;SDS011;1848;51.042;7.066;2022-09-09T06:45:53;4.77;;;2.50;;
3663;SDS011;1848;51.042;7.066;2022-09-09T06:48:24;5.90;;;2.07;;
3663;SDS011;1848;51.042;7.066;2022-09-09T06:51:16;4.33;;;1.83;;
3663;SDS011;1848;51.042;7.066;2022-09-09T06:53:44;7.13;;;2.40;;
3663;SDS011;1848;51.042;7.066;2022-09-09T06:58:55;5.50;;;2.07;;
3663;SDS011;1848;51.042;7.066;2022-09-09T07:01:25;7.37;;;1.90;;
3663;SDS011;1848;51.042;7.066;2022-09-09T07:03:54;3.40;;;1.93;;
3663;SDS011;1848;51.042;7.066;2022-09-09T07:06:23;8.40;;;2.50;;
3663;SDS011;1848;51.042;7.066;2022-09-09T07:08:52;4.03;;;1.90;;
3663;SDS011;1848;51.042;7.066;2022-09-09T07:11:22;6.57;;;2.20;;
3663;SDS011;1848;51.042;7.066;2022-09-09T07:13:51;8.60;;;2.57;;
3663;SDS011;1848;51.042;7.066;2022-09-09T07:16:19;5.07;;;1.90;;
3663;SDS011;1848;51.042;7.066;2022-09-09T07:18:47;7.87;;;2.73;;
3663;SDS011;1848;51.042;7.066;2022-09-09T07:21:13;5.37;;;2.30;;
3663;SDS011;1848;51.042;7.066;2022-09-09T07:23:41;4.43;;;2.40;;
3663;SDS011;1848;51.042;7.066;2022-09-09T07:26:11;3.90;;;2.20;;
3663;SDS011;1848;51.042;7.066;2022-09-09T07:28:39;5.30;;;2.40;;
3663;SDS011;1848;51.042;7.066;2022-09-09T07:31:08;8.27;;;2.10;;
3663;SDS011;1848;51.042;7.066;2022-09-09T07:33:40;6.10;;;2.20;;
3663;SDS011;1848;51.042;7.066;2022-09-09T07:36:07;5.40;;;2.07;;
3663;SDS011;1848;51.042;7.066;2022-09-09T07:38:42;4.80;;;1.87;;
3663;SDS011;1848;51.042;7.066;2022-09-09T07:41:14;7.67;;;2.40;;
3663;SDS011;1848;51.042;7.066;2022-09-09T07:43:53;4.77;;;2.03;;
3663;SDS011;1848;51.042;7.066;2022-09-09T07:46:21;6.43;;;2.40;;
3663;SDS011;1848;51.042;7.066;2022-09-09T07:48:51;10.93;;;2.60;;
3663;SDS011;1848;51.042;7.066;2022-09-09T07:51:20;3.40;;;1.77;;
3663;SDS011;1848;51.042;7.066;2022-09-09T07:53:53;5.30;;;1.60;;
3663;SDS011;1848;51.042;7.066;2022-09-09T07:56:25;5.80;;;2.20;;
3663;SDS011;1848;51.042;7.066;2022-09-09T07:58:53;8.50;;;2.37;;
3663;SDS011;1848;51.042;7.066;2022-09-09T08:01:39;7.60;;;2.13;;
3663;SDS011;1848;51.042;7.066;2022-09-09T08:04:09;6.00;;;2.23;;
3663;SDS011;1848;51.042;7.066;2022-09-09T08:06:42;7.17;;;2.67;;
3663;SDS011;1848;51.042;7.066;2022-09-09T08:09:13;5.90;;;2.13;;
3663;SDS011;1848;51.042;7.066;2022-09-09T08:11:41;10.10;;;2.50;;
3663;SDS011;1848;51.042;7.066;2022-09-09T08:14:08;12.20;;;2.27;;
3663;SDS011;1848;51.042;7.066;2022-09-09T08:16:37;12.00;;;2.73;;
3663;SDS011;1848;51.042;7.066;2022-09-09T08:19:06;9.00;;;2.10;;
3663;SDS011;1848;51.042;7.066;2022-09-09T08:21:36;5.50;;;2.00;;
3663;SDS011;1848;51.042;7.066;2022-09-09T08:24:05;6.37;;;2.10;;
3663;SDS011;1848;51.042;7.066;2022-09-09T08:26:50;6.13;;;2.33;;
3663;SDS011;1848;51.042;7.066;2022-09-09T08:29:17;8.10;;;2.47;;
3663;SDS011;1848;51.042;7.066;2022-09-09T08:31:45;7.33;;;2.23;;
3663;SDS011;1848;51.042;7.066;2022-09-09T08:34:13;5.50;;;1.87;;
3663;SDS011;1848;51.042;7.066;2022-09-09T08:36:41;11.07;;;1.90;;
3663;SDS011;1848;51.042;7.066;2022-09-09T08:39:10;5.53;;;1.70;;
3663;SDS011;1848;51.042;7.066;2022-09-09T09:03:49;7.10;;;2.53;;
3663;SDS011;1848;51.042;7.066;2022-09-09T09:11:37;9.13;;;2.00;;
3663;SDS011;1848;51.042;7.066;2022-09-09T09:14:11;5.40;;;1.70;;
3663;SDS011;1848;51.042;7.066;2022-09-09T09:17:00;4.20;;;1.63;;
3663;SDS011;1848;51.042;7.066;2022-09-09T09:19:29;4.90;;;1.90;;
3663;SDS011;1848;51.042;7.066;2022-09-09T09:21:59;3.90;;;1.70;;
3663;SDS011;1848;51.042;7.066;2022-09-09T09:24:45;4.70;;;1.80;;
3663;SDS011;1848;51.042;7.066;2022-09-09T09:27:36;7.90;;;2.57;;
3663;SDS011;1848;51.042;7.066;2022-09-09T09:30:19;6.77;;;2.13;;
3663;SDS011;1848;51.042;7.066;2022-09-09T09:32:59;3.03;;;1.43;;
3663;SDS011;1848;51.042;7.066;2022-09-09T09:35:29;5.77;;;2.07;;
3663;SDS011;1848;51.042;7.066;2022-09-09T09:37:55;6.33;;;2.00;;
3663;SDS011;1848;51.042;7.066;2022-09-09T09:40:49;3.27;;;1.20;;
3663;SDS011;1848;51.042;7.066;2022-09-09T09:43:25;4.77;;;1.60;;
3663;SDS011;1848;51.042;7.066;2022-09-09T09:45:54;4.83;;;2.00;;
3663;SDS011;1848;51.042;7.066;2022-09-09T09:48:41;6.93;;;1.93;;
3663;SDS011;1848;51.042;7.066;2022-09-09T09:51:08;5.33;;;1.40;;
3663;SDS011;1848;51.042;7.066;2022-09-09T09:53:39;5.20;;;1.73;;
3663;SDS011;1848;51.042;7.066;2022-09-09T09:56:09;4.37;;;1.73;;
3663;SDS011;1848;51.042;7.066;2022-09-09T10:01:25;6.00;;;1.90;;
3663;SDS011;1848;51.042;7.066;2022-09-09T10:04:22;4.23;;;1.90;;
3663;SDS011;1848;51.042;7.066;2022-09-09T10:06:49;4.47;;;1.70;;
3663;SDS011;1848;51.042;7.066;2022-09-09T10:12:03;5.60;;;1.60;;
3663;SDS011;1848;51.042;7.066;2022-09-09T10:14:36;3.93;;;1.40;;
3663;SDS011;1848;51.042;7.066;2022-09-09T10:20:13;4.17;;;1.33;;
3663;SDS011;1848;51.042;7.066;2022-09-09T10:22:54;4.40;;;1.50;;
3663;SDS011;1848;51.042;7.066;2022-09-09T10:33:50;3.50;;;1.70;;
3663;SDS011;1848;51.042;7.066;2022-09-09T10:36:25;5.30;;;1.50;;
3663;SDS011;1848;51.042;7.066;2022-09-09T10:39:04;5.13;;;1.37;;
3663;SDS011;1848;51.042;7.066;2022-09-09T10:41:44;6.03;;;1.50;;
3663;SDS011;1848;51.042;7.066;2022-09-09T10:55:59;2.73;;;1.60;;
3663;SDS011;1848;51.042;7.066;2022-09-09T10:58:32;15.23;;;1.70;;
3663;SDS011;1848;51.042;7.066;2022-09-09T11:01:13;5.33;;;1.90;;
3663;SDS011;1848;51.042;7.066;2022-09-09T11:03:45;3.73;;;1.50;;
3663;SDS011;1848;51.042;7.066;2022-09-09T11:06:19;8.30;;;1.93;;
3663;SDS011;1848;51.042;7.066;2022-09-09T11:08:49;2.60;;;1.40;;
3663;SDS011;1848;51.042;7.066;2022-09-09T11:11:25;4.93;;;1.40;;
3663;SDS011;1848;51.042;7.066;2022-09-09T11:22:07;2.43;;;1.30;;
3663;SDS011;1848;51.042;7.066;2022-09-09T11:24:50;3.57;;;1.40;;
3663;SDS011;1848;51.042;7.066;2022-09-09T11:27:35;2.90;;;1.30;;
3663;SDS011;1848;51.042;7.066;2022-09-09T11:30:19;4.90;;;2.07;;
3663;SDS011;1848;51.042;7.066;2022-09-09T11:36:24;6.03;;;1.57;;
3663;SDS011;1848;51.042;7.066;2022-09-09T11:39:19;4.27;;;1.50;;
3663;SDS011;1848;51.042;7.066;2022-09-09T11:41:49;6.20;;;1.83;;
3663;SDS011;1848;51.042;7.066;2022-09-09T11:44:19;4.67;;;1.87;;
3663;SDS011;1848;51.042;7.066;2022-09-09T11:46:54;2.40;;;1.40;;
3663;SDS011;1848;51.042;7.066;2022-09-09T11:55:26;2.90;;;1.37;;
3663;SDS011;1848;51.042;7.066;2022-09-09T11:58:02;3.67;;;1.50;;
3663;SDS011;1848;51.042;7.066;2022-09-09T12:00:42;3.17;;;1.27;;
3663;SDS011;1848;51.042;7.066;2022-09-09T12:06:20;2.87;;;1.80;;
3663;SDS011;1848;51.042;7.066;2022-09-09T12:08:55;9.17;;;1.90;;
3663;SDS011;1848;51.042;7.066;2022-09-09T12:11:30;6.17;;;1.80;;
3663;SDS011;1848;51.042;7.066;2022-09-09T12:13:58;4.63;;;1.60;;
3663;SDS011;1848;51.042;7.066;2022-09-09T12:16:36;3.07;;;1.67;;
3663;SDS011;1848;51.042;7.066;2022-09-09T12:19:15;3.43;;;1.40;;
3663;SDS011;1848;51.042;7.066;2022-09-09T12:24:35;6.33;;;1.63;;
3663;SDS011;1848;51.042;7.066;2022-09-09T12:27:11;3.43;;;1.83;;
3663;SDS011;1848;51.042;7.066;2022-09-09T12:29:55;3.40;;;1.80;;
3663;SDS011;1848;51.042;7.066;2022-09-09T12:32:29;3.60;;;1.33;;
3663;SDS011;1848;51.042;7.066;2022-09-09T12:34:59;2.90;;;1.23;;
3663;SDS011;1848;51.042;7.066;2022-09-09T12:37:37;3.13;;;1.43;;
3663;SDS011;1848;51.042;7.066;2022-09-09T12:40:20;3.93;;;1.30;;
3663;SDS011;1848;51.042;7.066;2022-09-09T12:42:48;7.00;;;1.70;;
3663;SDS011;1848;51.042;7.066;2022-09-09T12:45:20;2.80;;;1.50;;
3663;SDS011;1848;51.042;7.066;2022-09-09T12:47:56;3.17;;;1.93;;
3663;SDS011;1848;51.042;7.066;2022-09-09T12:50:31;5.33;;;1.60;;
3663;SDS011;1848;51.042;7.066;2022-09-09T12:53:02;2.67;;;1.63;;
3663;SDS011;1848;51.042;7.066;2022-09-09T12:55:35;1.70;;;1.40;;
3663;SDS011;1848;51.042;7.066;2022-09-09T12:58:04;5.23;;;1.57;;
3663;SDS011;1848;51.042;7.066;2022-09-09T13:00:32;2.60;;;1.30;;
3663;SDS011;1848;51.042;7.066;2022-09-09T13:03:01;3.13;;;1.43;;
3663;SDS011;1848;51.042;7.066;2022-09-09T13:05:36;2.47;;;1.73;;
3663;SDS011;1848;51.042;7.066;2022-09-09T13:08:06;2.50;;;1.50;;
3663;SDS011;1848;51.042;7.066;2022-09-09T13:10:46;3.40;;;1.70;;
3663;SDS011;1848;51.042;7.066;2022-09-09T13:13:22;3.30;;;1.97;;
3663;SDS011;1848;51.042;7.066;2022-09-09T13:15:55;5.80;;;1.57;;
3663;SDS011;1848;51.042;7.066;2022-09-09T13:18:28;5.30;;;2.40;;
3663;SDS011;1848;51.042;7.066;2022-09-09T13:20:56;4.10;;;2.40;;
3663;SDS011;1848;51.042;7.066;2022-09-09T13:23:27;4.80;;;2.50;;
3663;SDS011;1848;51.042;7.066;2022-09-09T13:26:02;4.90;;;2.00;;
3663;SDS011;1848;51.042;7.066;2022-09-09T13:28:32;4.83;;;2.43;;
3663;SDS011;1848;51.042;7.066;2022-09-09T13:31:03;4.73;;;2.27;;
3663;SDS011;1848;51.042;7.066;2022-09-09T13:33:36;3.60;;;1.80;;
3663;SDS011;1848;51.042;7.066;2022-09-09T13:36:07;4.27;;;1.90;;
3663;SDS011;1848;51.042;7.066;2022-09-09T13:41:24;6.60;;;1.77;;
3663;SDS011;1848;51.042;7.066;2022-09-09T13:43:56;4.00;;;1.60;;
3663;SDS011;1848;51.042;7.066;2022-09-09T13:49:00;8.13;;;2.13;;
3663;SDS011;1848;51.042;7.066;2022-09-09T13:54:04;3.53;;;1.73;;
3663;SDS011;1848;51.042;7.066;2022-09-09T13:56:33;5.00;;;1.90;;
3663;SDS011;1848;51.042;7.066;2022-09-09T13:59:00;7.57;;;2.00;;
3663;SDS011;1848;51.042;7.066;2022-09-09T14:01:28;4.53;;;1.67;;
3663;SDS011;1848;51.042;7.066;2022-09-09T14:03:55;4.30;;;1.93;;
3663;SDS011;1848;51.042;7.066;2022-09-09T14:06:21;4.23;;;1.93;;
3663;SDS011;1848;51.042;7.066;2022-09-09T14:08:48;7.63;;;2.10;;
3663;SDS011;1848;51.042;7.066;2022-09-09T14:11:16;3.40;;;2.00;;
3663;SDS011;1848;51.042;7.066;2022-09-09T14:13:44;4.50;;;2.27;;
3663;SDS011;1848;51.042;7.066;2022-09-09T14:16:10;4.43;;;2.10;;
3663;SDS011;1848;51.042;7.066;2022-09-09T14:18:36;4.93;;;2.10;;
3663;SDS011;1848;51.042;7.066;2022-09-09T14:21:04;4.37;;;1.70;;
3663;SDS011;1848;51.042;7.066;2022-09-09T14:23:30;4.67;;;2.00;;
3663;SDS011;1848;51.042;7.066;2022-09-09T14:25:58;3.77;;;2.00;;
3663;SDS011;1848;51.042;7.066;2022-09-09T14:28:24;6.30;;;2.73;;
3663;SDS011;1848;51.042;7.066;2022-09-09T14:31:11;5.50;;;2.47;;
3663;SDS011;1848;51.042;7.066;2022-09-09T14:33:40;3.53;;;2.20;;
3663;SDS011;1848;51.042;7.066;2022-09-09T14:36:06;4.33;;;2.13;;
3663;SDS011;1848;51.042;7.066;2022-09-09T14:38:34;7.63;;;2.30;;
3663;SDS011;1848;51.042;7.066;2022-09-09T14:41:05;6.23;;;2.23;;
3663;SDS011;1848;51.042;7.066;2022-09-09T14:43:32;5.23;;;2.43;;
3663;SDS011;1848;51.042;7.066;2022-09-09T14:46:05;6.97;;;2.83;;
3663;SDS011;1848;51.042;7.066;2022-09-09T14:48:33;4.20;;;2.60;;
3663;SDS011;1848;51.042;7.066;2022-09-09T14:51:13;5.40;;;2.70;;
3663;SDS011;1848;51.042;7.066;2022-09-09T14:53:42;4.03;;;2.20;;
3663;SDS011;1848;51.042;7.066;2022-09-09T14:56:11;5.23;;;2.70;;
3663;SDS011;1848;51.042;7.066;2022-09-09T14:58:40;5.10;;;2.70;;
3663;SDS011;1848;51.042;7.066;2022-09-09T15:01:07;3.97;;;2.17;;
3663;SDS011;1848;51.042;7.066;2022-09-09T15:03:39;3.90;;;2.23;;
3663;SDS011;1848;51.042;7.066;2022-09-09T15:06:12;3.43;;;1.93;;
3663;SDS011;1848;51.042;7.066;2022-09-09T15:08:40;2.90;;;1.87;;
3663;SDS011;1848;51.042;7.066;2022-09-09T15:11:09;2.07;;;1.80;;
3663;SDS011;1848;51.042;7.066;2022-09-09T15:13:36;2.90;;;1.73;;
3663;SDS011;1848;51.042;7.066;2022-09-09T15:16:07;2.10;;;1.80;;
3663;SDS011;1848;51.042;7.066;2022-09-09T15:18:42;2.67;;;1.97;;
3663;SDS011;1848;51.042;7.066;2022-09-09T15:21:11;4.33;;;2.00;;
3663;SDS011;1848;51.042;7.066;2022-09-09T15:23:47;3.10;;;2.27;;
3663;SDS011;1848;51.042;7.066;2022-09-09T15:26:14;2.63;;;1.70;;
3663;SDS011;1848;51.042;7.066;2022-09-09T15:28:41;1.83;;;1.73;;
3663;SDS011;1848;51.042;7.066;2022-09-09T15:31:17;3.10;;;2.00;;
3663;SDS011;1848;51.042;7.066;2022-09-09T15:33:50;3.23;;;2.00;;
3663;SDS011;1848;51.042;7.066;2022-09-09T15:36:19;2.97;;;1.80;;
3663;SDS011;1848;51.042;7.066;2022-09-09T15:38:45;5.50;;;1.80;;
3663;SDS011;1848;51.042;7.066;2022-09-09T15:41:12;2.60;;;1.90;;
3663;SDS011;1848;51.042;7.066;2022-09-09T15:43:42;3.40;;;2.37;;
3663;SDS011;1848;51.042;7.066;2022-09-09T15:48:57;3.80;;;2.17;;
3663;SDS011;1848;51.042;7.066;2022-09-09T15:51:28;4.33;;;2.40;;
3663;SDS011;1848;51.042;7.066;2022-09-09T15:54:08;6.53;;;1.87;;
3663;SDS011;1848;51.042;7.066;2022-09-09T15:56:36;2.47;;;1.77;;
3663;SDS011;1848;51.042;7.066;2022-09-09T15:59:02;2.93;;;1.93;;
3663;SDS011;1848;51.042;7.066;2022-09-09T16:01:30;3.20;;;2.20;;
3663;SDS011;1848;51.042;7.066;2022-09-09T16:03:58;3.20;;;1.97;;
3663;SDS011;1848;51.042;7.066;2022-09-09T16:06:26;2.50;;;1.80;;
3663;SDS011;1848;51.042;7.066;2022-09-09T16:08:55;2.63;;;2.17;;
3663;SDS011;1848;51.042;7.066;2022-09-09T16:11:24;5.43;;;2.33;;
3663;SDS011;1848;51.042;7.066;2022-09-09T16:13:53;3.17;;;1.93;;
3663;SDS011;1848;51.042;7.066;2022-09-09T16:16:21;3.80;;;2.30;;
3663;SDS011;1848;51.042;7.066;2022-09-09T16:18:51;4.60;;;2.37;;
3663;SDS011;1848;51.042;7.066;2022-09-09T16:21:23;2.93;;;1.80;;
3663;SDS011;1848;51.042;7.066;2022-09-09T16:23:57;3.97;;;2.30;;
3663;SDS011;1848;51.042;7.066;2022-09-09T16:26:25;2.23;;;1.90;;
3663;SDS011;1848;51.042;7.066;2022-09-09T16:28:53;2.13;;;1.50;;
3663;SDS011;1848;51.042;7.066;2022-09-09T16:31:27;2.87;;;1.40;;
3663;SDS011;1848;51.042;7.066;2022-09-09T16:33:54;2.83;;;1.63;;
3663;SDS011;1848;51.042;7.066;2022-09-09T16:36:25;1.80;;;1.37;;
3663;SDS011;1848;51.042;7.066;2022-09-09T16:38:54;3.27;;;1.83;;
3663;SDS011;1848;51.042;7.066;2022-09-09T16:41:24;4.03;;;1.97;;
3663;SDS011;1848;51.042;7.066;2022-09-09T16:43:54;2.27;;;1.50;;
3663;SDS011;1848;51.042;7.066;2022-09-09T16:46:22;4.60;;;1.73;;
3663;SDS011;1848;51.042;7.066;2022-09-09T16:48:50;1.60;;;1.50;;
3663;SDS011;1848;51.042;7.066;2022-09-09T16:51:19;1.60;;;1.50;;
3663;SDS011;1848;51.042;7.066;2022-09-09T16:53:49;2.23;;;1.70;;
3663;SDS011;1848;51.042;7.066;2022-09-09T16:56:17;3.17;;;1.53;;
3663;SDS011;1848;51.042;7.066;2022-09-09T16:58:49;2.27;;;1.70;;
3663;SDS011;1848;51.042;7.066;2022-09-09T17:01:25;2.53;;;1.20;;
3663;SDS011;1848;51.042;7.066;2022-09-09T17:03:53;1.90;;;1.23;;
3663;SDS011;1848;51.042;7.066;2022-09-09T17:06:26;3.40;;;1.80;;
3663;SDS011;1848;51.042;7.066;2022-09-09T17:08:59;1.80;;;1.40;;
3663;SDS011;1848;51.042;7.066;2022-09-09T17:11:28;2.30;;;1.63;;
3663;SDS011;1848;51.042;7.066;2022-09-09T17:13:55;2.80;;;1.80;;
3663;SDS011;1848;51.042;7.066;2022-09-09T17:16:24;2.93;;;1.83;;
3663;SDS011;1848;51.042;7.066;2022-09-09T17:18:53;3.50;;;1.80;;
3663;SDS011;1848;51.042;7.066;2022-09-09T17:21:22;4.63;;;2.40;;
3663;SDS011;1848;51.042;7.066;2022-09-09T17:23:51;3.27;;;1.93;;
3663;SDS011;1848;51.042;7.066;2022-09-09T17:26:20;2.90;;;2.03;;
3663;SDS011;1848;51.042;7.066;2022-09-09T17:28:48;7.90;;;1.90;;
3663;SDS011;1848;51.042;7.066;2022-09-09T17:31:16;2.20;;;2.00;;
3663;SDS011;1848;51.042;7.066;2022-09-09T17:33:45;2.23;;;1.83;;
3663;SDS011;1848;51.042;7.066;2022-09-09T17:36:17;3.97;;;2.30;;
3663;SDS011;1848;51.042;7.066;2022-09-09T17:38:45;3.77;;;2.10;;
3663;SDS011;1848;51.042;7.066;2022-09-09T17:41:14;3.27;;;1.77;;
3663;SDS011;1848;51.042;7.066;2022-09-09T17:43:43;3.00;;;2.03;;
3663;SDS011;1848;51.042;7.066;2022-09-09T17:48:51;2.50;;;2.07;;
3663;SDS011;1848;51.042;7.066;2022-09-09T17:51:21;3.10;;;2.43;;